Hammond, Oregon
Current Conditions -  °F | °C
As of 11:55 AM on Saturday 25 Oct 2014 (Local Time) from KAST Reporting Station
Light Rain Light Rain  
Wind Chill: 57°   Ceiling: 6000
Heat Index: 57°   Visibility: 6mi
Dew Point: 51°   Wind: 20mph
Humidity: 81%   Direction: 110°ESE
Pressure: 29.26"   Gusts: 28mph
Location:  46.2°N, 123.95°W
Report Text: KAST 251855Z AUTO 11017G24KT 6SM -RA OVC060 14/11 A2926 RMK AO2 RAB01 SLP906 P0001 T01390106
Loading
Personal Weather Stations






























Interactive Weather Map New forecast layout! Learn more

10-Day Weather Forecast

Advertisements
Track Severe Weather on mobile